sensor_id;sensor_type;location;lat;lon;timestamp;P1;durP1;ratioP1;P2;durP2;ratioP2
40849;SDS011;26571;41.610;25.380;2022-08-01T00:00:29;3.58;;;3.17;;
40849;SDS011;26571;41.610;25.380;2022-08-01T00:02:55;3.87;;;3.63;;
40849;SDS011;26571;41.610;25.380;2022-08-01T00:05:20;4.50;;;4.25;;
40849;SDS011;26571;41.610;25.380;2022-08-01T00:07:46;4.38;;;4.05;;
40849;SDS011;26571;41.610;25.380;2022-08-01T00:10:12;3.33;;;3.10;;
40849;SDS011;26571;41.610;25.380;2022-08-01T00:12:39;3.95;;;3.75;;
40849;SDS011;26571;41.610;25.380;2022-08-01T00:15:06;3.55;;;3.45;;
40849;SDS011;26571;41.610;25.380;2022-08-01T00:17:33;4.07;;;3.88;;
40849;SDS011;26571;41.610;25.380;2022-08-01T00:19:58;3.88;;;3.67;;
40849;SDS011;26571;41.610;25.380;2022-08-01T00:22:24;3.47;;;3.28;;
40849;SDS011;26571;41.610;25.380;2022-08-01T00:24:50;3.72;;;3.55;;
40849;SDS011;26571;41.610;25.380;2022-08-01T00:27:15;3.72;;;3.53;;
40849;SDS011;26571;41.610;25.380;2022-08-01T00:29:41;4.25;;;4.05;;
40849;SDS011;26571;41.610;25.380;2022-08-01T00:32:06;4.22;;;4.03;;
40849;SDS011;26571;41.610;25.380;2022-08-01T00:34:32;4.45;;;4.10;;
40849;SDS011;26571;41.610;25.380;2022-08-01T00:36:57;4.75;;;4.43;;
40849;SDS011;26571;41.610;25.380;2022-08-01T00:39:23;3.70;;;3.50;;
40849;SDS011;26571;41.610;25.380;2022-08-01T00:41:48;4.13;;;3.93;;
40849;SDS011;26571;41.610;25.380;2022-08-01T00:44:14;3.42;;;3.13;;
40849;SDS011;26571;41.610;25.380;2022-08-01T00:46:40;3.90;;;3.60;;
40849;SDS011;26571;41.610;25.380;2022-08-01T00:49:06;4.57;;;4.18;;
40849;SDS011;26571;41.610;25.380;2022-08-01T00:51:31;4.20;;;3.92;;
40849;SDS011;26571;41.610;25.380;2022-08-01T00:53:58;4.85;;;4.45;;
40849;SDS011;26571;41.610;25.380;2022-08-01T00:58:51;4.10;;;3.80;;
40849;SDS011;26571;41.610;25.380;2022-08-01T01:01:16;3.92;;;3.65;;
40849;SDS011;26571;41.610;25.380;2022-08-01T01:03:43;5.43;;;4.93;;
40849;SDS011;26571;41.610;25.380;2022-08-01T01:06:19;3.78;;;3.55;;
40849;SDS011;26571;41.610;25.380;2022-08-01T01:09:12;4.00;;;3.80;;
40849;SDS011;26571;41.610;25.380;2022-08-01T01:12:02;4.07;;;3.88;;
40849;SDS011;26571;41.610;25.380;2022-08-01T01:17:22;5.18;;;4.88;;
40849;SDS011;26571;41.610;25.380;2022-08-01T01:19:57;4.80;;;4.40;;
40849;SDS011;26571;41.610;25.380;2022-08-01T01:28:08;4.88;;;4.57;;
40849;SDS011;26571;41.610;25.380;2022-08-01T01:30:38;3.95;;;3.65;;
40849;SDS011;26571;41.610;25.380;2022-08-01T01:33:06;4.05;;;3.85;;
40849;SDS011;26571;41.610;25.380;2022-08-01T01:35:36;5.00;;;4.80;;
40849;SDS011;26571;41.610;25.380;2022-08-01T01:38:28;4.72;;;4.43;;
40849;SDS011;26571;41.610;25.380;2022-08-01T01:40:54;5.07;;;4.63;;
40849;SDS011;26571;41.610;25.380;2022-08-01T01:43:22;5.05;;;4.75;;
40849;SDS011;26571;41.610;25.380;2022-08-01T01:45:49;5.32;;;4.82;;
40849;SDS011;26571;41.610;25.380;2022-08-01T01:48:17;4.53;;;4.13;;
40849;SDS011;26571;41.610;25.380;2022-08-01T01:53:10;6.65;;;5.10;;
40849;SDS011;26571;41.610;25.380;2022-08-01T01:55:38;4.93;;;4.63;;
40849;SDS011;26571;41.610;25.380;2022-08-01T01:58:06;4.75;;;4.43;;
40849;SDS011;26571;41.610;25.380;2022-08-01T02:00:34;6.18;;;5.63;;
40849;SDS011;26571;41.610;25.380;2022-08-01T02:03:02;5.85;;;5.25;;
40849;SDS011;26571;41.610;25.380;2022-08-01T02:05:30;6.35;;;5.95;;
40849;SDS011;26571;41.610;25.380;2022-08-01T02:07:59;5.35;;;4.97;;
40849;SDS011;26571;41.610;25.380;2022-08-01T02:12:53;5.55;;;5.10;;
40849;SDS011;26571;41.610;25.380;2022-08-01T02:15:19;5.38;;;4.97;;
40849;SDS011;26571;41.610;25.380;2022-08-01T02:17:47;5.43;;;5.13;;
40849;SDS011;26571;41.610;25.380;2022-08-01T02:20:14;5.10;;;4.65;;
40849;SDS011;26571;41.610;25.380;2022-08-01T02:22:46;5.80;;;5.43;;
40849;SDS011;26571;41.610;25.380;2022-08-01T02:25:20;5.63;;;5.20;;
40849;SDS011;26571;41.610;25.380;2022-08-01T02:30:20;5.65;;;5.35;;
40849;SDS011;26571;41.610;25.380;2022-08-01T02:32:49;6.05;;;5.55;;
40849;SDS011;26571;41.610;25.380;2022-08-01T02:35:29;5.70;;;5.40;;
40849;SDS011;26571;41.610;25.380;2022-08-01T02:37:59;6.20;;;5.63;;
40849;SDS011;26571;41.610;25.380;2022-08-01T02:40:26;6.93;;;6.32;;
40849;SDS011;26571;41.610;25.380;2022-08-01T02:42:53;5.15;;;4.70;;
40849;SDS011;26571;41.610;25.380;2022-08-01T02:45:22;5.60;;;5.22;;
40849;SDS011;26571;41.610;25.380;2022-08-01T02:47:51;5.72;;;5.43;;
40849;SDS011;26571;41.610;25.380;2022-08-01T02:50:19;5.57;;;5.20;;
40849;SDS011;26571;41.610;25.380;2022-08-01T02:52:46;5.63;;;5.25;;
40849;SDS011;26571;41.610;25.380;2022-08-01T02:55:15;11.52;;;8.52;;
40849;SDS011;26571;41.610;25.380;2022-08-01T02:57:44;10.43;;;9.40;;
40849;SDS011;26571;41.610;25.380;2022-08-01T03:00:13;10.98;;;9.98;;
40849;SDS011;26571;41.610;25.380;2022-08-01T03:02:40;6.88;;;6.20;;
40849;SDS011;26571;41.610;25.380;2022-08-01T03:05:08;8.10;;;6.60;;
40849;SDS011;26571;41.610;25.380;2022-08-01T03:07:37;6.18;;;5.70;;
40849;SDS011;26571;41.610;25.380;2022-08-01T03:12:31;6.70;;;6.30;;
40849;SDS011;26571;41.610;25.380;2022-08-01T03:14:59;6.10;;;5.70;;
40849;SDS011;26571;41.610;25.380;2022-08-01T03:17:27;7.55;;;6.07;;
40849;SDS011;26571;41.610;25.380;2022-08-01T03:19:53;6.25;;;4.85;;
40849;SDS011;26571;41.610;25.380;2022-08-01T03:22:22;6.82;;;6.20;;
40849;SDS011;26571;41.610;25.380;2022-08-01T03:24:51;6.30;;;5.80;;
40849;SDS011;26571;41.610;25.380;2022-08-01T03:27:18;7.68;;;7.07;;
40849;SDS011;26571;41.610;25.380;2022-08-01T03:29:46;7.13;;;6.20;;
40849;SDS011;26571;41.610;25.380;2022-08-01T03:32:14;6.25;;;5.93;;
40849;SDS011;26571;41.610;25.380;2022-08-01T03:34:40;6.53;;;6.07;;
40849;SDS011;26571;41.610;25.380;2022-08-01T03:40:06;5.53;;;5.22;;
40849;SDS011;26571;41.610;25.380;2022-08-01T03:42:37;5.28;;;4.97;;
40849;SDS011;26571;41.610;25.380;2022-08-01T03:45:08;5.47;;;4.90;;
40849;SDS011;26571;41.610;25.380;2022-08-01T03:47:42;6.65;;;5.40;;
40849;SDS011;26571;41.610;25.380;2022-08-01T03:50:09;6.10;;;5.60;;
40849;SDS011;26571;41.610;25.380;2022-08-01T03:52:38;5.63;;;5.22;;
40849;SDS011;26571;41.610;25.380;2022-08-01T03:55:06;4.57;;;4.22;;
40849;SDS011;26571;41.610;25.380;2022-08-01T03:57:33;4.67;;;4.37;;
40849;SDS011;26571;41.610;25.380;2022-08-01T03:59:59;5.03;;;4.72;;
40849;SDS011;26571;41.610;25.380;2022-08-01T04:02:29;5.57;;;4.05;;
40849;SDS011;26571;41.610;25.380;2022-08-01T04:04:54;4.68;;;4.15;;
40849;SDS011;26571;41.610;25.380;2022-08-01T04:07:25;4.18;;;3.63;;
40849;SDS011;26571;41.610;25.380;2022-08-01T04:09:55;5.22;;;3.90;;
40849;SDS011;26571;41.610;25.380;2022-08-01T04:12:21;3.93;;;3.63;;
40849;SDS011;26571;41.610;25.380;2022-08-01T04:14:47;4.45;;;3.13;;
40849;SDS011;26571;41.610;25.380;2022-08-01T04:17:13;3.60;;;3.28;;
40849;SDS011;26571;41.610;25.380;2022-08-01T04:19:40;4.30;;;4.10;;
40849;SDS011;26571;41.610;25.380;2022-08-01T04:22:05;3.38;;;3.25;;
40849;SDS011;26571;41.610;25.380;2022-08-01T04:24:32;3.03;;;2.83;;
40849;SDS011;26571;41.610;25.380;2022-08-01T04:27:00;2.78;;;2.60;;
40849;SDS011;26571;41.610;25.380;2022-08-01T04:29:30;3.35;;;2.97;;
40849;SDS011;26571;41.610;25.380;2022-08-01T04:31:57;2.53;;;2.33;;
40849;SDS011;26571;41.610;25.380;2022-08-01T04:34:25;2.53;;;2.33;;
40849;SDS011;26571;41.610;25.380;2022-08-01T04:36:55;2.58;;;2.28;;
40849;SDS011;26571;41.610;25.380;2022-08-01T04:39:23;2.60;;;2.35;;
40849;SDS011;26571;41.610;25.380;2022-08-01T04:41:55;2.72;;;2.55;;
40849;SDS011;26571;41.610;25.380;2022-08-01T04:44:25;2.50;;;2.30;;
40849;SDS011;26571;41.610;25.380;2022-08-01T04:46:52;2.30;;;2.10;;
40849;SDS011;26571;41.610;25.380;2022-08-01T04:49:19;3.17;;;2.28;;
40849;SDS011;26571;41.610;25.380;2022-08-01T04:51:53;1.77;;;1.77;;
40849;SDS011;26571;41.610;25.380;2022-08-01T04:54:22;4.05;;;2.05;;
40849;SDS011;26571;41.610;25.380;2022-08-01T04:56:52;2.80;;;2.47;;
40849;SDS011;26571;41.610;25.380;2022-08-01T04:59:24;2.50;;;2.40;;
40849;SDS011;26571;41.610;25.380;2022-08-01T05:02:08;2.65;;;2.55;;
40849;SDS011;26571;41.610;25.380;2022-08-01T05:04:35;4.47;;;2.28;;
40849;SDS011;26571;41.610;25.380;2022-08-01T05:07:02;2.47;;;2.35;;
40849;SDS011;26571;41.610;25.380;2022-08-01T05:09:28;2.22;;;2.13;;
40849;SDS011;26571;41.610;25.380;2022-08-01T05:11:53;2.40;;;2.20;;
40849;SDS011;26571;41.610;25.380;2022-08-01T05:16:46;3.35;;;3.25;;
40849;SDS011;26571;41.610;25.380;2022-08-01T05:19:11;4.38;;;4.05;;
40849;SDS011;26571;41.610;25.380;2022-08-01T05:21:37;3.72;;;3.53;;
40849;SDS011;26571;41.610;25.380;2022-08-01T05:24:03;6.07;;;5.15;;
40849;SDS011;26571;41.610;25.380;2022-08-01T05:26:29;3.40;;;3.20;;
40849;SDS011;26571;41.610;25.380;2022-08-01T05:28:55;3.22;;;3.03;;
40849;SDS011;26571;41.610;25.380;2022-08-01T05:31:20;2.23;;;2.03;;
40849;SDS011;26571;41.610;25.380;2022-08-01T05:33:46;3.93;;;3.37;;
40849;SDS011;26571;41.610;25.380;2022-08-01T05:36:11;4.30;;;2.60;;
40849;SDS011;26571;41.610;25.380;2022-08-01T05:38:36;2.33;;;1.80;;
40849;SDS011;26571;41.610;25.380;2022-08-01T05:41:02;2.10;;;2.00;;
40849;SDS011;26571;41.610;25.380;2022-08-01T05:43:27;2.40;;;1.80;;
40849;SDS011;26571;41.610;25.380;2022-08-01T05:45:53;2.53;;;2.43;;
40849;SDS011;26571;41.610;25.380;2022-08-01T05:48:18;2.20;;;2.10;;
40849;SDS011;26571;41.610;25.380;2022-08-01T05:50:44;2.23;;;2.13;;
40849;SDS011;26571;41.610;25.380;2022-08-01T05:53:09;1.60;;;1.50;;
40849;SDS011;26571;41.610;25.380;2022-08-01T05:55:35;2.17;;;2.07;;
40849;SDS011;26571;41.610;25.380;2022-08-01T05:58:01;5.40;;;2.55;;
40849;SDS011;26571;41.610;25.380;2022-08-01T06:00:27;3.35;;;2.00;;
40849;SDS011;26571;41.610;25.380;2022-08-01T06:02:53;3.07;;;2.87;;
40849;SDS011;26571;41.610;25.380;2022-08-01T06:05:18;3.57;;;2.23;;
40849;SDS011;26571;41.610;25.380;2022-08-01T06:07:44;2.20;;;2.10;;
40849;SDS011;26571;41.610;25.380;2022-08-01T06:10:09;2.30;;;2.13;;
40849;SDS011;26571;41.610;25.380;2022-08-01T06:12:35;2.57;;;2.23;;
40849;SDS011;26571;41.610;25.380;2022-08-01T06:17:27;2.67;;;2.47;;
40849;SDS011;26571;41.610;25.380;2022-08-01T06:19:53;2.80;;;2.33;;
40849;SDS011;26571;41.610;25.380;2022-08-01T06:22:18;1.90;;;1.80;;
40849;SDS011;26571;41.610;25.380;2022-08-01T06:24:43;2.17;;;2.07;;
40849;SDS011;26571;41.610;25.380;2022-08-01T06:27:09;2.30;;;1.40;;
40849;SDS011;26571;41.610;25.380;2022-08-01T06:29:34;1.07;;;0.97;;
40849;SDS011;26571;41.610;25.380;2022-08-01T06:32:00;2.83;;;0.80;;
40849;SDS011;26571;41.610;25.380;2022-08-01T06:34:25;1.23;;;1.10;;
40849;SDS011;26571;41.610;25.380;2022-08-01T06:36:51;1.70;;;0.50;;
40849;SDS011;26571;41.610;25.380;2022-08-01T06:39:16;0.87;;;0.60;;
40849;SDS011;26571;41.610;25.380;2022-08-01T06:41:41;0.80;;;0.60;;
40849;SDS011;26571;41.610;25.380;2022-08-01T06:44:07;1.13;;;0.30;;
40849;SDS011;26571;41.610;25.380;2022-08-01T06:46:33;1.23;;;0.40;;
40849;SDS011;26571;41.610;25.380;2022-08-01T06:48:59;0.22;;;0.20;;
40849;SDS011;26571;41.610;25.380;2022-08-01T06:51:25;0.20;;;0.20;;
40849;SDS011;26571;41.610;25.380;2022-08-01T06:53:50;0.90;;;0.20;;
40849;SDS011;26571;41.610;25.380;2022-08-01T06:56:16;1.17;;;0.30;;
40849;SDS011;26571;41.610;25.380;2022-08-01T06:58:41;0.83;;;0.67;;
40849;SDS011;26571;41.610;25.380;2022-08-01T07:01:06;1.90;;;0.47;;
40849;SDS011;26571;41.610;25.380;2022-08-01T07:03:33;1.43;;;0.20;;
40849;SDS011;26571;41.610;25.380;2022-08-01T07:05:59;0.30;;;0.20;;
40849;SDS011;26571;41.610;25.380;2022-08-01T07:08:24;2.43;;;0.20;;
40849;SDS011;26571;41.610;25.380;2022-08-01T07:10:49;0.50;;;0.20;;
40849;SDS011;26571;41.610;25.380;2022-08-01T07:13:15;1.08;;;0.20;;
40849;SDS011;26571;41.610;25.380;2022-08-01T07:15:45;0.32;;;0.20;;
40849;SDS011;26571;41.610;25.380;2022-08-01T07:18:11;1.27;;;0.20;;
40849;SDS011;26571;41.610;25.380;2022-08-01T07:20:37;0.20;;;0.17;;
40849;SDS011;26571;41.610;25.380;2022-08-01T07:23:03;0.65;;;0.10;;
40849;SDS011;26571;41.610;25.380;2022-08-01T07:25:28;0.23;;;0.10;;
40849;SDS011;26571;41.610;25.380;2022-08-01T07:27:54;1.07;;;0.43;;
40849;SDS011;26571;41.610;25.380;2022-08-01T07:30:19;2.87;;;0.20;;
40849;SDS011;26571;41.610;25.380;2022-08-01T07:32:45;0.53;;;0.30;;
40849;SDS011;26571;41.610;25.380;2022-08-01T07:35:10;0.20;;;0.20;;
40849;SDS011;26571;41.610;25.380;2022-08-01T07:37:35;1.20;;;0.20;;
40849;SDS011;26571;41.610;25.380;2022-08-01T07:40:01;2.23;;;0.20;;
40849;SDS011;26571;41.610;25.380;2022-08-01T07:42:29;0.28;;;0.17;;
40849;SDS011;26571;41.610;25.380;2022-08-01T07:44:54;0.20;;;0.20;;
40849;SDS011;26571;41.610;25.380;2022-08-01T07:47:24;1.13;;;0.10;;
40849;SDS011;26571;41.610;25.380;2022-08-01T07:49:50;0.20;;;0.20;;
40849;SDS011;26571;41.610;25.380;2022-08-01T07:52:16;1.60;;;0.38;;
40849;SDS011;26571;41.610;25.380;2022-08-01T07:54:41;0.57;;;0.20;;
40849;SDS011;26571;41.610;25.380;2022-08-01T07:57:07;2.73;;;0.97;;
40849;SDS011;26571;41.610;25.380;2022-08-01T07:59:32;0.17;;;0.17;;
40849;SDS011;26571;41.610;25.380;2022-08-01T08:01:58;0.93;;;0.20;;
40849;SDS011;26571;41.610;25.380;2022-08-01T08:04:24;0.15;;;0.13;;
40849;SDS011;26571;41.610;25.380;2022-08-01T08:06:50;0.88;;;0.28;;
40849;SDS011;26571;41.610;25.380;2022-08-01T08:09:15;1.40;;;0.20;;
40849;SDS011;26571;41.610;25.380;2022-08-01T08:11:44;1.20;;;0.20;;
40849;SDS011;26571;41.610;25.380;2022-08-01T08:14:10;1.27;;;0.15;;
40849;SDS011;26571;41.610;25.380;2022-08-01T08:16:36;0.40;;;0.10;;
40849;SDS011;26571;41.610;25.380;2022-08-01T08:19:03;0.20;;;0.20;;
40849;SDS011;26571;41.610;25.380;2022-08-01T08:21:29;0.40;;;0.20;;
40849;SDS011;26571;41.610;25.380;2022-08-01T08:23:55;1.85;;;0.20;;
40849;SDS011;26571;41.610;25.380;2022-08-01T08:26:39;0.15;;;0.10;;
40849;SDS011;26571;41.610;25.380;2022-08-01T08:29:05;1.90;;;0.20;;
40849;SDS011;26571;41.610;25.380;2022-08-01T08:31:30;0.32;;;0.10;;
40849;SDS011;26571;41.610;25.380;2022-08-01T08:33:56;1.00;;;0.30;;
40849;SDS011;26571;41.610;25.380;2022-08-01T08:36:21;0.10;;;0.10;;
40849;SDS011;26571;41.610;25.380;2022-08-01T08:38:46;0.23;;;0.20;;
40849;SDS011;26571;41.610;25.380;2022-08-01T08:41:12;0.20;;;0.20;;
40849;SDS011;26571;41.610;25.380;2022-08-01T08:43:39;0.10;;;0.10;;
40849;SDS011;26571;41.610;25.380;2022-08-01T08:46:05;4.27;;;0.40;;
40849;SDS011;26571;41.610;25.380;2022-08-01T08:48:32;0.43;;;0.30;;
40849;SDS011;26571;41.610;25.380;2022-08-01T08:50:58;0.20;;;0.20;;
40849;SDS011;26571;41.610;25.380;2022-08-01T08:53:26;0.50;;;0.13;;
40849;SDS011;26571;41.610;25.380;2022-08-01T08:55:52;1.77;;;0.28;;
40849;SDS011;26571;41.610;25.380;2022-08-01T08:58:19;4.40;;;3.80;;
40849;SDS011;26571;41.610;25.380;2022-08-01T09:00:46;2.97;;;1.73;;
40849;SDS011;26571;41.610;25.380;2022-08-01T09:03:12;1.40;;;0.25;;
40849;SDS011;26571;41.610;25.380;2022-08-01T09:05:38;0.40;;;0.30;;
40849;SDS011;26571;41.610;25.380;2022-08-01T09:08:07;2.55;;;0.80;;
40849;SDS011;26571;41.610;25.380;2022-08-01T09:10:33;0.20;;;0.10;;
40849;SDS011;26571;41.610;25.380;2022-08-01T09:13:12;0.27;;;0.10;;
40849;SDS011;26571;41.610;25.380;2022-08-01T09:18:24;3.20;;;0.20;;
40849;SDS011;26571;41.610;25.380;2022-08-01T09:23:41;0.30;;;0.20;;
40849;SDS011;26571;41.610;25.380;2022-08-01T09:26:13;1.55;;;0.30;;
40849;SDS011;26571;41.610;25.380;2022-08-01T09:28:43;0.25;;;0.25;;
40849;SDS011;26571;41.610;25.380;2022-08-01T09:33:56;0.85;;;0.22;;
40849;SDS011;26571;41.610;25.380;2022-08-01T09:36:50;1.25;;;0.32;;
40849;SDS011;26571;41.610;25.380;2022-08-01T09:39:27;0.20;;;0.20;;
40849;SDS011;26571;41.610;25.380;2022-08-01T09:41:57;0.60;;;0.35;;
40849;SDS011;26571;41.610;25.380;2022-08-01T09:44:40;1.80;;;0.20;;
40849;SDS011;26571;41.610;25.380;2022-08-01T09:47:07;0.20;;;0.20;;
40849;SDS011;26571;41.610;25.380;2022-08-01T09:49:34;0.10;;;0.10;;
40849;SDS011;26571;41.610;25.380;2022-08-01T09:52:09;1.02;;;0.20;;
40849;SDS011;26571;41.610;25.380;2022-08-01T09:54:35;0.35;;;0.20;;
40849;SDS011;26571;41.610;25.380;2022-08-01T09:57:14;1.87;;;0.73;;
40849;SDS011;26571;41.610;25.380;2022-08-01T09:59:45;1.15;;;0.10;;
40849;SDS011;26571;41.610;25.380;2022-08-01T10:02:14;1.23;;;0.20;;
40849;SDS011;26571;41.610;25.380;2022-08-01T10:04:53;0.25;;;0.15;;
40849;SDS011;26571;41.610;25.380;2022-08-01T10:07:19;0.85;;;0.20;;
40849;SDS011;26571;41.610;25.380;2022-08-01T10:09:46;0.28;;;0.20;;
40849;SDS011;26571;41.610;25.380;2022-08-01T10:14:39;2.22;;;0.20;;
40849;SDS011;26571;41.610;25.380;2022-08-01T10:19:33;1.35;;;0.50;;
40849;SDS011;26571;41.610;25.380;2022-08-01T10:22:00;0.70;;;0.17;;
40849;SDS011;26571;41.610;25.380;2022-08-01T10:24:29;1.00;;;0.20;;
40849;SDS011;26571;41.610;25.380;2022-08-01T10:26:57;0.85;;;0.20;;
40849;SDS011;26571;41.610;25.380;2022-08-01T10:29:28;0.95;;;0.20;;
40849;SDS011;26571;41.610;25.380;2022-08-01T10:32:02;0.90;;;0.20;;
40849;SDS011;26571;41.610;25.380;2022-08-01T10:34:30;0.35;;;0.20;;
40849;SDS011;26571;41.610;25.380;2022-08-01T10:36:56;1.70;;;0.20;;
40849;SDS011;26571;41.610;25.380;2022-08-01T10:39:22;1.77;;;0.20;;
40849;SDS011;26571;41.610;25.380;2022-08-01T10:41:50;0.22;;;0.20;;
40849;SDS011;26571;41.610;25.380;2022-08-01T10:44:15;0.20;;;0.20;;
40849;SDS011;26571;41.610;25.380;2022-08-01T10:46:42;0.22;;;0.20;;
40849;SDS011;26571;41.610;25.380;2022-08-01T10:49:12;7.25;;;0.52;;
40849;SDS011;26571;41.610;25.380;2022-08-01T10:51:40;0.47;;;0.20;;
40849;SDS011;26571;41.610;25.380;2022-08-01T10:56:42;0.52;;;0.20;;
40849;SDS011;26571;41.610;25.380;2022-08-01T10:59:09;0.10;;;0.10;;
40849;SDS011;26571;41.610;25.380;2022-08-01T11:01:38;0.65;;;0.13;;
40849;SDS011;26571;41.610;25.380;2022-08-01T11:04:06;2.40;;;0.30;;
40849;SDS011;26571;41.610;25.380;2022-08-01T11:09:27;2.35;;;0.20;;
40849;SDS011;26571;41.610;25.380;2022-08-01T11:11:57;0.82;;;0.20;;
40849;SDS011;26571;41.610;25.380;2022-08-01T11:14:28;0.85;;;0.60;;
40849;SDS011;26571;41.610;25.380;2022-08-01T11:17:29;0.77;;;0.20;;
40849;SDS011;26571;41.610;25.380;2022-08-01T11:20:14;0.40;;;0.20;;
40849;SDS011;26571;41.610;25.380;2022-08-01T11:23:16;1.73;;;0.20;;
40849;SDS011;26571;41.610;25.380;2022-08-01T11:30:41;1.95;;;0.30;;
40849;SDS011;26571;41.610;25.380;2022-08-01T11:33:07;0.43;;;0.20;;
40849;SDS011;26571;41.610;25.380;2022-08-01T11:35:34;0.13;;;0.13;;
40849;SDS011;26571;41.610;25.380;2022-08-01T11:52:25;3.35;;;0.68;;
40849;SDS011;26571;41.610;25.380;2022-08-01T11:54:54;2.03;;;0.20;;
40849;SDS011;26571;41.610;25.380;2022-08-01T11:57:31;0.90;;;0.30;;
40849;SDS011;26571;41.610;25.380;2022-08-01T12:00:00;2.53;;;0.20;;
40849;SDS011;26571;41.610;25.380;2022-08-01T12:02:31;0.30;;;0.20;;
40849;SDS011;26571;41.610;25.380;2022-08-01T12:05:10;1.80;;;0.20;;
40849;SDS011;26571;41.610;25.380;2022-08-01T12:07:39;1.38;;;0.20;;
40849;SDS011;26571;41.610;25.380;2022-08-01T12:10:10;2.05;;;0.30;;
40849;SDS011;26571;41.610;25.380;2022-08-01T12:12:47;0.85;;;0.10;;
40849;SDS011;26571;41.610;25.380;2022-08-01T12:15:13;1.95;;;0.50;;
40849;SDS011;26571;41.610;25.380;2022-08-01T12:17:49;3.20;;;0.20;;
40849;SDS011;26571;41.610;25.380;2022-08-01T12:20:20;1.45;;;0.20;;
40849;SDS011;26571;41.610;25.380;2022-08-01T12:22:47;1.75;;;0.20;;
40849;SDS011;26571;41.610;25.380;2022-08-01T12:25:17;0.43;;;0.20;;
40849;SDS011;26571;41.610;25.380;2022-08-01T12:27:44;1.07;;;0.20;;
40849;SDS011;26571;41.610;25.380;2022-08-01T12:30:13;0.20;;;0.20;;
40849;SDS011;26571;41.610;25.380;2022-08-01T12:32:41;1.80;;;0.15;;
40849;SDS011;26571;41.610;25.380;2022-08-01T12:35:28;0.20;;;0.20;;
40849;SDS011;26571;41.610;25.380;2022-08-01T12:40:21;0.30;;;0.10;;
40849;SDS011;26571;41.610;25.380;2022-08-01T12:42:49;0.82;;;0.50;;
40849;SDS011;26571;41.610;25.380;2022-08-01T12:45:20;2.97;;;1.48;;
40849;SDS011;26571;41.610;25.380;2022-08-01T12:47:48;0.88;;;0.30;;
40849;SDS011;26571;41.610;25.380;2022-08-01T12:50:16;0.20;;;0.20;;
40849;SDS011;26571;41.610;25.380;2022-08-01T12:52:45;1.88;;;0.17;;
40849;SDS011;26571;41.610;25.380;2022-08-01T12:57:44;2.05;;;0.13;;
40849;SDS011;26571;41.610;25.380;2022-08-01T13:00:24;2.13;;;0.55;;
40849;SDS011;26571;41.610;25.380;2022-08-01T13:03:02;1.15;;;0.17;;
40849;SDS011;26571;41.610;25.380;2022-08-01T13:05:31;1.25;;;0.22;;
40849;SDS011;26571;41.610;25.380;2022-08-01T13:08:19;0.73;;;0.20;;
40849;SDS011;26571;41.610;25.380;2022-08-01T13:11:05;2.50;;;0.10;;
40849;SDS011;26571;41.610;25.380;2022-08-01T13:13:38;0.30;;;0.10;;
40849;SDS011;26571;41.610;25.380;2022-08-01T13:16:08;0.95;;;0.20;;
40849;SDS011;26571;41.610;25.380;2022-08-01T13:18:50;1.02;;;0.30;;
40849;SDS011;26571;41.610;25.380;2022-08-01T13:21:17;0.13;;;0.10;;
40849;SDS011;26571;41.610;25.380;2022-08-01T13:24:27;2.35;;;0.20;;
40849;SDS011;26571;41.610;25.380;2022-08-01T13:29:35;0.10;;;0.10;;
40849;SDS011;26571;41.610;25.380;2022-08-01T13:32:15;1.95;;;0.40;;
40849;SDS011;26571;41.610;25.380;2022-08-01T13:34:43;2.13;;;0.20;;
40849;SDS011;26571;41.610;25.380;2022-08-01T13:37:08;1.83;;;0.10;;
40849;SDS011;26571;41.610;25.380;2022-08-01T13:39:34;0.20;;;0.20;;
40849;SDS011;26571;41.610;25.380;2022-08-01T13:42:06;0.40;;;0.10;;
40849;SDS011;26571;41.610;25.380;2022-08-01T13:44:39;0.10;;;0.10;;
40849;SDS011;26571;41.610;25.380;2022-08-01T13:47:05;0.17;;;0.10;;
40849;SDS011;26571;41.610;25.380;2022-08-01T13:49:31;0.65;;;0.10;;
40849;SDS011;26571;41.610;25.380;2022-08-01T13:51:56;1.53;;;0.10;;
40849;SDS011;26571;41.610;25.380;2022-08-01T13:54:22;2.58;;;0.30;;
40849;SDS011;26571;41.610;25.380;2022-08-01T13:56:49;1.25;;;0.20;;
40849;SDS011;26571;41.610;25.380;2022-08-01T13:59:15;5.65;;;0.77;;
40849;SDS011;26571;41.610;25.380;2022-08-01T14:01:41;0.73;;;0.10;;
40849;SDS011;26571;41.610;25.380;2022-08-01T14:04:06;0.20;;;0.20;;
40849;SDS011;26571;41.610;25.380;2022-08-01T14:06:32;0.20;;;0.20;;
40849;SDS011;26571;41.610;25.380;2022-08-01T14:08:59;6.93;;;0.30;;
40849;SDS011;26571;41.610;25.380;2022-08-01T14:11:26;0.25;;;0.20;;
40849;SDS011;26571;41.610;25.380;2022-08-01T14:13:51;3.30;;;0.20;;
40849;SDS011;26571;41.610;25.380;2022-08-01T14:16:17;0.73;;;0.13;;
40849;SDS011;26571;41.610;25.380;2022-08-01T14:18:42;0.77;;;0.20;;
40849;SDS011;26571;41.610;25.380;2022-08-01T14:21:08;0.87;;;0.20;;
40849;SDS011;26571;41.610;25.380;2022-08-01T14:23:33;0.17;;;0.17;;
40849;SDS011;26571;41.610;25.380;2022-08-01T14:25:59;0.67;;;0.20;;
40849;SDS011;26571;41.610;25.380;2022-08-01T14:28:24;0.20;;;0.20;;
40849;SDS011;26571;41.610;25.380;2022-08-01T14:30:52;1.38;;;0.22;;
40849;SDS011;26571;41.610;25.380;2022-08-01T14:33:17;0.20;;;0.20;;
40849;SDS011;26571;41.610;25.380;2022-08-01T14:35:43;0.90;;;0.20;;
40849;SDS011;26571;41.610;25.380;2022-08-01T14:38:08;1.53;;;0.20;;
40849;SDS011;26571;41.610;25.380;2022-08-01T14:40:34;0.20;;;0.13;;
40849;SDS011;26571;41.610;25.380;2022-08-01T14:43:00;1.75;;;0.10;;
40849;SDS011;26571;41.610;25.380;2022-08-01T14:45:26;1.90;;;0.73;;
40849;SDS011;26571;41.610;25.380;2022-08-01T14:50:18;1.40;;;0.32;;
40849;SDS011;26571;41.610;25.380;2022-08-01T14:52:43;0.20;;;0.20;;
40849;SDS011;26571;41.610;25.380;2022-08-01T14:55:09;0.90;;;0.20;;
40849;SDS011;26571;41.610;25.380;2022-08-01T14:57:37;1.00;;;0.20;;
40849;SDS011;26571;41.610;25.380;2022-08-01T15:00:04;1.75;;;0.17;;
40849;SDS011;26571;41.610;25.380;2022-08-01T15:02:32;0.20;;;0.20;;
40849;SDS011;26571;41.610;25.380;2022-08-01T15:04:58;0.20;;;0.20;;
40849;SDS011;26571;41.610;25.380;2022-08-01T15:07:23;1.40;;;0.33;;
40849;SDS011;26571;41.610;25.380;2022-08-01T15:09:48;0.20;;;0.20;;
40849;SDS011;26571;41.610;25.380;2022-08-01T15:12:14;1.90;;;0.20;;
40849;SDS011;26571;41.610;25.380;2022-08-01T15:14:39;2.27;;;0.20;;
40849;SDS011;26571;41.610;25.380;2022-08-01T15:19:40;1.20;;;0.25;;
40849;SDS011;26571;41.610;25.380;2022-08-01T15:22:05;0.93;;;0.17;;
40849;SDS011;26571;41.610;25.380;2022-08-01T15:24:31;6.63;;;0.70;;
40849;SDS011;26571;41.610;25.380;2022-08-01T15:26:56;3.20;;;0.30;;
40849;SDS011;26571;41.610;25.380;2022-08-01T15:29:22;2.13;;;0.30;;
40849;SDS011;26571;41.610;25.380;2022-08-01T15:31:47;2.57;;;0.20;;
40849;SDS011;26571;41.610;25.380;2022-08-01T15:34:13;0.20;;;0.20;;
40849;SDS011;26571;41.610;25.380;2022-08-01T15:36:39;2.90;;;0.20;;
40849;SDS011;26571;41.610;25.380;2022-08-01T15:39:04;0.37;;;0.20;;
40849;SDS011;26571;41.610;25.380;2022-08-01T15:41:30;0.40;;;0.20;;
40849;SDS011;26571;41.610;25.380;2022-08-01T15:43:55;1.80;;;0.20;;
40849;SDS011;26571;41.610;25.380;2022-08-01T15:46:21;0.20;;;0.20;;
40849;SDS011;26571;41.610;25.380;2022-08-01T15:48:46;0.33;;;0.20;;
40849;SDS011;26571;41.610;25.380;2022-08-01T15:51:12;0.20;;;0.20;;
40849;SDS011;26571;41.610;25.380;2022-08-01T15:53:37;1.70;;;0.30;;
40849;SDS011;26571;41.610;25.380;2022-08-01T15:56:03;1.03;;;0.20;;
40849;SDS011;26571;41.610;25.380;2022-08-01T15:58:28;1.73;;;0.20;;